Time;durP1;ratioP1;P1;durP2;ratioP2;P2;SDS_P1;SDS_P2;PMS_P1;PMS_P2;Temp;Humidity;BMP_temperature;BMP_pressure;BME280_temperature;BME280_humidity;BME280_pressure;Samples;Min_cycle;Max_cycle;Signal;HPM_P1;HPM_P2
2021/09/06 07:02:04;;;;;;;12.50;10.07;;;;;;;;;;10601510;28;20059;-87
2021/09/06 07:07:06;;;;;;;9.65;8.65;;;;;;;;;;10575537;28;20349;-86
2021/09/06 07:12:10;;;;;;;11.30;10.05;;;;;;;;;;10574780;28;20038;-87
2021/09/06 07:17:46;;;;;;;13.88;10.77;;;;;;;;;;10591317;28;20020;-87
2021/09/06 07:22:50;;;;;;;14.93;12.25;;;;;;;;;;10598200;28;20023;-85
2021/09/06 07:28:31;;;;;;;16.15;12.13;;;;;;;;;;10607195;28;20098;-86
2021/09/06 07:33:58;;;;;;;14.82;12.55;;;;;;;;;;10576288;28;20038;-86
2021/09/06 07:39:22;;;;;;;17.88;12.68;;;;;;;;;;10588517;28;20028;-86
2021/09/06 07:44:43;;;;;;;16.58;13.10;;;;;;;;;;10585027;28;20040;-84
2021/09/06 10:23:21;;;;;;;13.52;11.40;;;;;;;;;;10590036;28;20032;-86
2021/09/06 10:46:20;;;;;;;12.45;11.15;;;;;;;;;;10313194;28;20405;-88
2021/09/06 13:03:48;;;;;;;10.35;7.90;;;;;;;;;;10420650;28;20112;-86
2021/09/06 13:15:08;;;;;;;9.52;7.82;;;;;;;;;;10420973;28;20147;-85
2021/09/06 16:17:31;;;;;;;7.35;6.57;;;;;;;;;;10594426;28;20500;-87
2021/09/06 16:22:35;;;;;;;7.88;6.60;;;;;;;;;;10587739;28;20047;-84
2021/09/06 16:28:00;;;;;;;7.55;6.63;;;;;;;;;;10591020;28;20044;-86
2021/09/06 16:33:09;;;;;;;9.32;6.40;;;;;;;;;;10618812;28;20035;-86
2021/09/06 16:38:22;;;;;;;7.00;5.95;;;;;;;;;;10574990;28;20036;-87
2021/09/06 16:43:31;;;;;;;9.55;6.50;;;;;;;;;;10584708;28;20032;-85
2021/09/06 16:48:41;;;;;;;7.88;6.35;;;;;;;;;;10618696;28;20068;-84
2021/09/06 16:53:43;;;;;;;7.72;6.25;;;;;;;;;;10600089;28;20035;-84
2021/09/06 17:04:14;;;;;;;8.07;6.72;;;;;;;;;;10602391;28;20064;-86
2021/09/06 17:09:27;;;;;;;7.88;6.80;;;;;;;;;;10569033;28;20038;-86
2021/09/06 17:14:41;;;;;;;7.90;7.10;;;;;;;;;;10555832;28;20085;-86
2021/09/06 17:20:12;;;;;;;8.02;6.90;;;;;;;;;;10586023;28;20043;-86
2021/09/06 17:36:54;;;;;;;7.85;6.70;;;;;;;;;;10595514;28;20032;-84
2021/09/06 17:41:55;;;;;;;8.68;6.50;;;;;;;;;;10578130;28;20048;-86
2021/09/06 17:46:59;;;;;;;8.15;5.97;;;;;;;;;;10586394;28;20446;-85
2021/09/06 17:52:07;;;;;;;8.85;7.35;;;;;;;;;;10597895;28;20165;-85
2021/09/06 17:57:34;;;;;;;8.30;6.88;;;;;;;;;;10579594;28;20103;-85
2021/09/06 18:19:56;;;;;;;6.72;5.82;;;;;;;;;;10601576;28;20489;-85
2021/09/06 18:30:40;;;;;;;6.97;6.25;;;;;;;;;;10604489;28;20027;-85
2021/09/06 18:35:41;;;;;;;7.72;6.38;;;;;;;;;;10590476;28;20031;-86
2021/09/06 19:09:24;;;;;;;7.18;5.72;;;;;;;;;;10596117;28;20027;-85
2021/09/06 19:20:46;;;;;;;5.97;5.35;;;;;;;;;;10429671;28;20053;-84
2021/09/06 19:25:51;;;;;;;7.00;6.28;;;;;;;;;;10556583;28;20606;-84
2021/09/06 19:30:52;;;;;;;6.85;5.60;;;;;;;;;;10582440;28;20039;-84
2021/09/06 19:35:57;;;;;;;7.13;6.43;;;;;;;;;;10592240;28;20040;-84
2021/09/06 19:41:22;;;;;;;7.65;6.85;;;;;;;;;;10610673;28;20063;-85
2021/09/06 19:46:39;;;;;;;6.47;5.82;;;;;;;;;;10610970;28;20150;-85
2021/09/06 19:51:42;;;;;;;7.00;6.28;;;;;;;;;;10606346;28;20035;-85
